Terminal Aerodrome Forecast
Issued by NWS

Home | Current Version | Previous Version | Text Only | Print | Product List | Glossary On
Versions: 1 2 3 4 5 6 7 8 9 10 11 12 13 14 15 16 17 18 19 20
000
FTUS43 KDDC 230533
TAFGCK
TAF
KGCK 230533Z 2306/2406 09007KT P6SM BKN200
     FM231700 20013G21KT P6SM FEW250
     FM231900 23023G35KT P6SM FEW250
     FM240000 27015G24KT P6SM FEW250
     FM240200 34020G30KT P6SM FEW200=

USA.gov is the U.S. government's official web portal to all federal, state and local government web resources and services.